Pagina principale
METAR-TAF:

METAR-TAF

Aeroporti :

Gibuti, Gibuti

latitudine: 11-33N, longitudine: 043-10E, altezza: 49 m

Osservazione

Il bollettino è stato emesso 1 ora e 4 minuti fa, alle 12:00 UTC
Vento 9 kt da est
Temperature 29°C
Umidità 66%
Pressione 1013 hPa
Visibilità 10 km o più
Poco nuvoloso ad un'altezza di 2300 ft

METAR: HDAM 171200Z 08009KT 9999 FEW023 29/22 Q1013

Ora: 16:04 (13:04 UTC)

Previsione

Il bollettino è stato emesso 2 ore e 4 minuti fa, alle 11:00 UTC
Previsione valida dal 17 alle 12 UTC al 18 alle 12 UTC
Vento 10 kt da est
Visibilità 10 km o più
Poco nuvoloso ad un'altezza di 2300 ft
Evoluzione graduale
dal 17 alle 15 UTC al 17 alle 18 UTC
Vento 5 kt da direzioni variabili
Poco nuvoloso ad un'altezza di 2000 ft
Evoluzione graduale
dal 18 alle 00 UTC al 18 alle 06 UTC
Vento kt da nord
Poco nuvoloso ad un'altezza di 2000 ft

TAF: HDAM 171100Z 1712/1812 08010KT 9999 FEW023 BECMG 1715/1718 VRB05KT FEW020 BECMG 1800/1806 00000KT FEW020

Osservazioni e previsioni meteorologiche di più di 4000 aeroporti (messaggi METAR e TAF).

Le stazioni disponibili sono rappresentate dai dischi gialli e rossi sulla carta.

Puntare il mouse per vedere il nome della stazione.

Clicca sopra per visualizzare le osservazioni e previsioni meteorologiche.

Per cambiare la mappa : fare clic sui pulsanti verdi con una croce nera per ingrandire, il pulsante verde con un trattino per diminuire, o sulla freccia verde per le mappe adiacenti.


METAR-TAF: